sensor_id;sensor_type;location;lat;lon;timestamp;P1;durP1;ratioP1;P2;durP2;ratioP2
51852;SDS011;37894;53.172;6.598;2022-07-23T00:00:15;5.18;;;2.83;;
51852;SDS011;37894;53.172;6.598;2022-07-23T00:02:43;4.85;;;2.90;;
51852;SDS011;37894;53.172;6.598;2022-07-23T00:05:09;4.95;;;2.75;;
51852;SDS011;37894;53.172;6.598;2022-07-23T00:07:35;4.95;;;2.55;;
51852;SDS011;37894;53.172;6.598;2022-07-23T00:10:02;5.60;;;2.83;;
51852;SDS011;37894;53.172;6.598;2022-07-23T00:12:28;8.07;;;2.90;;
51852;SDS011;37894;53.172;6.598;2022-07-23T00:14:54;5.30;;;2.88;;
51852;SDS011;37894;53.172;6.598;2022-07-23T00:17:19;7.85;;;2.55;;
51852;SDS011;37894;53.172;6.598;2022-07-23T00:19:45;6.03;;;2.80;;
51852;SDS011;37894;53.172;6.598;2022-07-23T00:22:11;6.50;;;2.92;;
51852;SDS011;37894;53.172;6.598;2022-07-23T00:24:36;5.57;;;2.65;;
51852;SDS011;37894;53.172;6.598;2022-07-23T00:27:02;6.35;;;3.20;;
51852;SDS011;37894;53.172;6.598;2022-07-23T00:29:28;7.82;;;2.80;;
51852;SDS011;37894;53.172;6.598;2022-07-23T00:31:54;7.60;;;3.20;;
51852;SDS011;37894;53.172;6.598;2022-07-23T00:34:20;6.30;;;3.22;;
51852;SDS011;37894;53.172;6.598;2022-07-23T00:36:45;6.07;;;2.85;;
51852;SDS011;37894;53.172;6.598;2022-07-23T00:39:11;5.97;;;2.72;;
51852;SDS011;37894;53.172;6.598;2022-07-23T00:41:37;7.10;;;3.20;;
51852;SDS011;37894;53.172;6.598;2022-07-23T00:44:15;6.80;;;2.92;;
51852;SDS011;37894;53.172;6.598;2022-07-23T00:46:47;7.55;;;3.80;;
51852;SDS011;37894;53.172;6.598;2022-07-23T00:49:18;5.05;;;3.20;;
51852;SDS011;37894;53.172;6.598;2022-07-23T00:51:45;11.07;;;3.70;;
51852;SDS011;37894;53.172;6.598;2022-07-23T00:54:11;7.65;;;3.65;;
51852;SDS011;37894;53.172;6.598;2022-07-23T00:56:37;6.25;;;3.50;;
51852;SDS011;37894;53.172;6.598;2022-07-23T00:59:03;9.93;;;4.28;;
51852;SDS011;37894;53.172;6.598;2022-07-23T01:01:30;6.38;;;3.40;;
51852;SDS011;37894;53.172;6.598;2022-07-23T01:03:56;9.02;;;4.30;;
51852;SDS011;37894;53.172;6.598;2022-07-23T01:06:21;8.05;;;3.70;;
51852;SDS011;37894;53.172;6.598;2022-07-23T01:08:48;8.18;;;3.40;;
51852;SDS011;37894;53.172;6.598;2022-07-23T01:11:13;6.85;;;3.90;;
51852;SDS011;37894;53.172;6.598;2022-07-23T01:13:43;11.38;;;4.07;;
51852;SDS011;37894;53.172;6.598;2022-07-23T01:16:08;8.90;;;3.60;;
51852;SDS011;37894;53.172;6.598;2022-07-23T01:18:34;7.70;;;3.90;;
51852;SDS011;37894;53.172;6.598;2022-07-23T01:21:00;7.07;;;3.78;;
51852;SDS011;37894;53.172;6.598;2022-07-23T01:23:26;8.98;;;4.28;;
51852;SDS011;37894;53.172;6.598;2022-07-23T01:25:52;5.88;;;3.78;;
51852;SDS011;37894;53.172;6.598;2022-07-23T01:28:19;7.05;;;3.58;;
51852;SDS011;37894;53.172;6.598;2022-07-23T01:30:45;10.98;;;4.05;;
51852;SDS011;37894;53.172;6.598;2022-07-23T01:33:11;4.75;;;3.20;;
51852;SDS011;37894;53.172;6.598;2022-07-23T01:35:37;7.88;;;3.72;;
51852;SDS011;37894;53.172;6.598;2022-07-23T01:38:02;6.00;;;3.58;;
51852;SDS011;37894;53.172;6.598;2022-07-23T01:40:28;6.38;;;3.85;;
51852;SDS011;37894;53.172;6.598;2022-07-23T01:42:53;9.95;;;3.50;;
51852;SDS011;37894;53.172;6.598;2022-07-23T01:45:19;7.80;;;3.72;;
51852;SDS011;37894;53.172;6.598;2022-07-23T01:47:45;5.18;;;3.40;;
51852;SDS011;37894;53.172;6.598;2022-07-23T01:50:12;10.25;;;3.58;;
51852;SDS011;37894;53.172;6.598;2022-07-23T01:52:37;7.45;;;3.95;;
51852;SDS011;37894;53.172;6.598;2022-07-23T01:55:03;9.32;;;3.78;;
51852;SDS011;37894;53.172;6.598;2022-07-23T01:57:30;7.93;;;4.28;;
51852;SDS011;37894;53.172;6.598;2022-07-23T01:59:56;7.15;;;4.15;;
51852;SDS011;37894;53.172;6.598;2022-07-23T02:02:22;8.05;;;4.45;;
51852;SDS011;37894;53.172;6.598;2022-07-23T02:04:48;10.85;;;4.55;;
51852;SDS011;37894;53.172;6.598;2022-07-23T02:07:13;6.40;;;3.90;;
51852;SDS011;37894;53.172;6.598;2022-07-23T02:09:39;6.68;;;4.32;;
51852;SDS011;37894;53.172;6.598;2022-07-23T02:12:04;9.15;;;4.38;;
51852;SDS011;37894;53.172;6.598;2022-07-23T02:14:30;9.40;;;4.32;;
51852;SDS011;37894;53.172;6.598;2022-07-23T02:16:56;7.65;;;4.30;;
51852;SDS011;37894;53.172;6.598;2022-07-23T02:19:22;6.30;;;4.32;;
51852;SDS011;37894;53.172;6.598;2022-07-23T02:21:47;7.38;;;4.20;;
51852;SDS011;37894;53.172;6.598;2022-07-23T02:24:13;7.43;;;4.55;;
51852;SDS011;37894;53.172;6.598;2022-07-23T02:26:39;11.48;;;4.70;;
51852;SDS011;37894;53.172;6.598;2022-07-23T02:29:05;9.40;;;4.50;;
51852;SDS011;37894;53.172;6.598;2022-07-23T02:31:31;8.60;;;4.82;;
51852;SDS011;37894;53.172;6.598;2022-07-23T02:33:57;10.32;;;4.55;;
51852;SDS011;37894;53.172;6.598;2022-07-23T02:36:23;9.40;;;4.80;;
51852;SDS011;37894;53.172;6.598;2022-07-23T02:38:49;7.13;;;4.43;;
51852;SDS011;37894;53.172;6.598;2022-07-23T02:41:15;11.27;;;4.47;;
51852;SDS011;37894;53.172;6.598;2022-07-23T02:43:41;7.97;;;5.03;;
51852;SDS011;37894;53.172;6.598;2022-07-23T02:46:06;7.35;;;4.82;;
51852;SDS011;37894;53.172;6.598;2022-07-23T02:48:32;10.60;;;5.63;;
51852;SDS011;37894;53.172;6.598;2022-07-23T02:50:58;9.48;;;5.63;;
51852;SDS011;37894;53.172;6.598;2022-07-23T02:53:24;9.68;;;6.05;;
51852;SDS011;37894;53.172;6.598;2022-07-23T02:55:49;10.15;;;5.45;;
51852;SDS011;37894;53.172;6.598;2022-07-23T02:58:15;11.75;;;6.00;;
51852;SDS011;37894;53.172;6.598;2022-07-23T03:00:41;10.32;;;6.03;;
51852;SDS011;37894;53.172;6.598;2022-07-23T03:03:07;11.13;;;5.93;;
51852;SDS011;37894;53.172;6.598;2022-07-23T03:05:33;11.35;;;6.07;;
51852;SDS011;37894;53.172;6.598;2022-07-23T03:07:59;9.23;;;5.93;;
51852;SDS011;37894;53.172;6.598;2022-07-23T03:10:25;11.65;;;6.80;;
51852;SDS011;37894;53.172;6.598;2022-07-23T03:12:50;10.52;;;6.20;;
51852;SDS011;37894;53.172;6.598;2022-07-23T03:15:16;11.30;;;6.15;;
51852;SDS011;37894;53.172;6.598;2022-07-23T03:17:42;11.13;;;6.25;;
51852;SDS011;37894;53.172;6.598;2022-07-23T03:20:07;10.30;;;6.28;;
51852;SDS011;37894;53.172;6.598;2022-07-23T03:22:34;8.80;;;5.88;;
51852;SDS011;37894;53.172;6.598;2022-07-23T03:25:00;13.55;;;6.65;;
51852;SDS011;37894;53.172;6.598;2022-07-23T03:27:27;13.27;;;6.38;;
51852;SDS011;37894;53.172;6.598;2022-07-23T03:29:54;10.73;;;5.93;;
51852;SDS011;37894;53.172;6.598;2022-07-23T03:32:21;8.55;;;5.60;;
51852;SDS011;37894;53.172;6.598;2022-07-23T03:34:48;10.05;;;6.20;;
51852;SDS011;37894;53.172;6.598;2022-07-23T03:37:15;10.02;;;6.38;;
51852;SDS011;37894;53.172;6.598;2022-07-23T03:39:41;10.55;;;5.70;;
51852;SDS011;37894;53.172;6.598;2022-07-23T03:42:07;12.02;;;6.78;;
51852;SDS011;37894;53.172;6.598;2022-07-23T03:44:33;12.20;;;6.97;;
51852;SDS011;37894;53.172;6.598;2022-07-23T03:46:59;10.75;;;6.65;;
51852;SDS011;37894;53.172;6.598;2022-07-23T03:49:24;8.60;;;6.03;;
51852;SDS011;37894;53.172;6.598;2022-07-23T03:51:50;11.88;;;6.35;;
51852;SDS011;37894;53.172;6.598;2022-07-23T03:54:16;9.90;;;6.57;;
51852;SDS011;37894;53.172;6.598;2022-07-23T03:56:42;13.45;;;6.90;;
51852;SDS011;37894;53.172;6.598;2022-07-23T03:59:08;9.02;;;6.13;;
51852;SDS011;37894;53.172;6.598;2022-07-23T04:01:35;10.57;;;6.10;;
51852;SDS011;37894;53.172;6.598;2022-07-23T04:04:01;9.50;;;5.45;;
51852;SDS011;37894;53.172;6.598;2022-07-23T04:06:27;9.38;;;6.13;;
51852;SDS011;37894;53.172;6.598;2022-07-23T04:08:52;9.63;;;5.30;;
51852;SDS011;37894;53.172;6.598;2022-07-23T04:11:18;8.65;;;4.88;;
51852;SDS011;37894;53.172;6.598;2022-07-23T04:13:44;10.45;;;5.07;;
51852;SDS011;37894;53.172;6.598;2022-07-23T04:16:09;9.45;;;5.45;;
51852;SDS011;37894;53.172;6.598;2022-07-23T04:18:35;8.68;;;5.35;;
51852;SDS011;37894;53.172;6.598;2022-07-23T04:21:01;9.68;;;4.90;;
51852;SDS011;37894;53.172;6.598;2022-07-23T04:23:26;8.68;;;5.22;;
51852;SDS011;37894;53.172;6.598;2022-07-23T04:25:52;10.68;;;5.45;;
51852;SDS011;37894;53.172;6.598;2022-07-23T04:28:17;7.00;;;5.32;;
51852;SDS011;37894;53.172;6.598;2022-07-23T04:30:43;8.35;;;5.00;;
51852;SDS011;37894;53.172;6.598;2022-07-23T04:33:09;9.23;;;4.65;;
51852;SDS011;37894;53.172;6.598;2022-07-23T04:35:34;11.18;;;5.53;;
51852;SDS011;37894;53.172;6.598;2022-07-23T04:38:01;8.55;;;4.60;;
51852;SDS011;37894;53.172;6.598;2022-07-23T04:40:28;10.23;;;5.20;;
51852;SDS011;37894;53.172;6.598;2022-07-23T04:42:54;8.43;;;4.75;;
51852;SDS011;37894;53.172;6.598;2022-07-23T04:45:20;7.90;;;5.15;;
51852;SDS011;37894;53.172;6.598;2022-07-23T04:47:45;8.65;;;4.78;;
51852;SDS011;37894;53.172;6.598;2022-07-23T04:50:12;11.70;;;4.40;;
51852;SDS011;37894;53.172;6.598;2022-07-23T04:52:37;9.05;;;5.65;;
51852;SDS011;37894;53.172;6.598;2022-07-23T04:55:03;9.15;;;4.53;;
51852;SDS011;37894;53.172;6.598;2022-07-23T04:57:30;7.47;;;4.65;;
51852;SDS011;37894;53.172;6.598;2022-07-23T04:59:55;8.50;;;4.40;;
51852;SDS011;37894;53.172;6.598;2022-07-23T05:02:21;9.23;;;4.63;;
51852;SDS011;37894;53.172;6.598;2022-07-23T05:04:46;10.20;;;5.47;;
51852;SDS011;37894;53.172;6.598;2022-07-23T05:07:12;7.05;;;4.60;;
51852;SDS011;37894;53.172;6.598;2022-07-23T05:09:38;8.60;;;4.93;;
51852;SDS011;37894;53.172;6.598;2022-07-23T05:12:04;8.15;;;4.38;;
51852;SDS011;37894;53.172;6.598;2022-07-23T05:14:29;7.55;;;4.65;;
51852;SDS011;37894;53.172;6.598;2022-07-23T05:16:55;5.65;;;3.97;;
51852;SDS011;37894;53.172;6.598;2022-07-23T05:19:21;6.85;;;4.13;;
51852;SDS011;37894;53.172;6.598;2022-07-23T05:21:47;8.57;;;4.40;;
51852;SDS011;37894;53.172;6.598;2022-07-23T05:24:12;8.18;;;5.18;;
51852;SDS011;37894;53.172;6.598;2022-07-23T05:26:38;8.05;;;4.25;;
51852;SDS011;37894;53.172;6.598;2022-07-23T05:29:04;6.32;;;3.70;;
51852;SDS011;37894;53.172;6.598;2022-07-23T05:31:29;7.32;;;4.43;;
51852;SDS011;37894;53.172;6.598;2022-07-23T05:33:55;12.07;;;4.55;;
51852;SDS011;37894;53.172;6.598;2022-07-23T05:36:20;9.80;;;4.28;;
51852;SDS011;37894;53.172;6.598;2022-07-23T05:38:46;7.75;;;3.70;;
51852;SDS011;37894;53.172;6.598;2022-07-23T05:41:12;6.60;;;4.18;;
51852;SDS011;37894;53.172;6.598;2022-07-23T05:43:37;8.05;;;4.00;;
51852;SDS011;37894;53.172;6.598;2022-07-23T05:46:03;6.78;;;3.70;;
51852;SDS011;37894;53.172;6.598;2022-07-23T05:48:29;6.82;;;3.85;;
51852;SDS011;37894;53.172;6.598;2022-07-23T05:50:55;5.68;;;3.22;;
51852;SDS011;37894;53.172;6.598;2022-07-23T05:53:20;6.35;;;3.47;;
51852;SDS011;37894;53.172;6.598;2022-07-23T05:55:46;6.97;;;3.50;;
51852;SDS011;37894;53.172;6.598;2022-07-23T05:58:12;7.00;;;3.20;;
51852;SDS011;37894;53.172;6.598;2022-07-23T06:00:37;4.88;;;2.83;;
51852;SDS011;37894;53.172;6.598;2022-07-23T06:03:03;5.07;;;2.30;;
51852;SDS011;37894;53.172;6.598;2022-07-23T06:05:29;6.28;;;2.28;;
51852;SDS011;37894;53.172;6.598;2022-07-23T06:07:54;4.20;;;2.00;;
51852;SDS011;37894;53.172;6.598;2022-07-23T06:10:20;5.38;;;2.00;;
51852;SDS011;37894;53.172;6.598;2022-07-23T06:12:46;4.00;;;2.08;;
51852;SDS011;37894;53.172;6.598;2022-07-23T06:15:12;5.32;;;1.92;;
51852;SDS011;37894;53.172;6.598;2022-07-23T06:17:38;4.50;;;1.90;;
51852;SDS011;37894;53.172;6.598;2022-07-23T06:20:08;4.65;;;1.73;;
51852;SDS011;37894;53.172;6.598;2022-07-23T06:22:35;4.22;;;2.00;;
51852;SDS011;37894;53.172;6.598;2022-07-23T06:25:01;5.63;;;1.67;;
51852;SDS011;37894;53.172;6.598;2022-07-23T06:27:27;6.30;;;2.00;;
51852;SDS011;37894;53.172;6.598;2022-07-23T06:29:53;4.28;;;1.65;;
51852;SDS011;37894;53.172;6.598;2022-07-23T06:32:19;3.05;;;1.55;;
51852;SDS011;37894;53.172;6.598;2022-07-23T06:34:45;4.78;;;1.70;;
51852;SDS011;37894;53.172;6.598;2022-07-23T06:37:10;4.82;;;1.63;;
51852;SDS011;37894;53.172;6.598;2022-07-23T06:39:36;4.53;;;1.73;;
51852;SDS011;37894;53.172;6.598;2022-07-23T06:42:01;4.28;;;1.77;;
51852;SDS011;37894;53.172;6.598;2022-07-23T06:44:27;6.07;;;1.60;;
51852;SDS011;37894;53.172;6.598;2022-07-23T06:46:53;6.43;;;2.00;;
51852;SDS011;37894;53.172;6.598;2022-07-23T06:49:18;5.47;;;2.28;;
51852;SDS011;37894;53.172;6.598;2022-07-23T06:51:44;5.72;;;2.47;;
51852;SDS011;37894;53.172;6.598;2022-07-23T06:54:10;6.40;;;2.15;;
51852;SDS011;37894;53.172;6.598;2022-07-23T06:56:36;5.13;;;2.10;;
51852;SDS011;37894;53.172;6.598;2022-07-23T06:59:01;4.20;;;2.13;;
51852;SDS011;37894;53.172;6.598;2022-07-23T07:01:27;4.60;;;2.10;;
51852;SDS011;37894;53.172;6.598;2022-07-23T07:03:53;4.82;;;2.20;;
51852;SDS011;37894;53.172;6.598;2022-07-23T07:06:19;5.70;;;2.00;;
51852;SDS011;37894;53.172;6.598;2022-07-23T07:08:44;4.18;;;2.00;;
51852;SDS011;37894;53.172;6.598;2022-07-23T07:11:10;4.43;;;2.03;;
51852;SDS011;37894;53.172;6.598;2022-07-23T07:13:42;4.13;;;1.98;;
51852;SDS011;37894;53.172;6.598;2022-07-23T07:18:33;3.38;;;1.40;;
51852;SDS011;37894;53.172;6.598;2022-07-23T07:20:59;4.55;;;1.30;;
51852;SDS011;37894;53.172;6.598;2022-07-23T07:23:25;3.67;;;1.23;;
51852;SDS011;37894;53.172;6.598;2022-07-23T07:25:50;2.25;;;1.00;;
51852;SDS011;37894;53.172;6.598;2022-07-23T07:28:16;3.08;;;1.27;;
51852;SDS011;37894;53.172;6.598;2022-07-23T07:30:42;2.40;;;1.00;;
51852;SDS011;37894;53.172;6.598;2022-07-23T07:33:07;5.10;;;1.35;;
51852;SDS011;37894;53.172;6.598;2022-07-23T07:35:33;1.92;;;1.13;;
51852;SDS011;37894;53.172;6.598;2022-07-23T07:37:59;4.30;;;1.00;;
51852;SDS011;37894;53.172;6.598;2022-07-23T07:40:25;2.78;;;1.08;;
51852;SDS011;37894;53.172;6.598;2022-07-23T07:42:52;2.25;;;0.98;;
51852;SDS011;37894;53.172;6.598;2022-07-23T07:45:22;1.95;;;0.73;;
51852;SDS011;37894;53.172;6.598;2022-07-23T07:47:49;3.00;;;0.88;;
51852;SDS011;37894;53.172;6.598;2022-07-23T07:50:17;1.33;;;0.80;;
51852;SDS011;37894;53.172;6.598;2022-07-23T07:52:44;1.50;;;0.60;;
51852;SDS011;37894;53.172;6.598;2022-07-23T07:55:10;5.38;;;0.95;;
51852;SDS011;37894;53.172;6.598;2022-07-23T07:57:37;2.70;;;0.90;;
51852;SDS011;37894;53.172;6.598;2022-07-23T08:00:03;1.77;;;0.70;;
51852;SDS011;37894;53.172;6.598;2022-07-23T08:02:53;3.70;;;1.23;;
51852;SDS011;37894;53.172;6.598;2022-07-23T08:05:20;2.13;;;0.80;;
51852;SDS011;37894;53.172;6.598;2022-07-23T08:07:49;1.65;;;0.75;;
51852;SDS011;37894;53.172;6.598;2022-07-23T08:10:15;2.05;;;0.70;;
51852;SDS011;37894;53.172;6.598;2022-07-23T08:12:42;1.98;;;0.77;;
51852;SDS011;37894;53.172;6.598;2022-07-23T08:15:09;3.10;;;0.90;;
51852;SDS011;37894;53.172;6.598;2022-07-23T08:17:35;2.05;;;0.80;;
51852;SDS011;37894;53.172;6.598;2022-07-23T08:20:01;2.25;;;0.80;;
51852;SDS011;37894;53.172;6.598;2022-07-23T08:25:40;2.50;;;1.30;;
51852;SDS011;37894;53.172;6.598;2022-07-23T08:28:08;2.78;;;1.02;;
51852;SDS011;37894;53.172;6.598;2022-07-23T08:30:35;2.33;;;0.70;;
51852;SDS011;37894;53.172;6.598;2022-07-23T08:33:02;2.35;;;0.85;;
51852;SDS011;37894;53.172;6.598;2022-07-23T08:35:30;3.00;;;0.88;;
51852;SDS011;37894;53.172;6.598;2022-07-23T08:38:07;2.90;;;0.65;;
51852;SDS011;37894;53.172;6.598;2022-07-23T08:40:35;1.33;;;0.70;;
51852;SDS011;37894;53.172;6.598;2022-07-23T08:43:04;1.42;;;0.70;;
51852;SDS011;37894;53.172;6.598;2022-07-23T08:45:31;1.80;;;0.60;;
51852;SDS011;37894;53.172;6.598;2022-07-23T08:48:02;2.47;;;1.00;;
51852;SDS011;37894;53.172;6.598;2022-07-23T08:50:28;3.33;;;0.75;;
51852;SDS011;37894;53.172;6.598;2022-07-23T08:52:54;5.95;;;0.90;;
51852;SDS011;37894;53.172;6.598;2022-07-23T08:55:21;2.03;;;0.70;;
51852;SDS011;37894;53.172;6.598;2022-07-23T08:57:48;2.72;;;0.80;;
51852;SDS011;37894;53.172;6.598;2022-07-23T09:00:16;1.17;;;0.52;;
51852;SDS011;37894;53.172;6.598;2022-07-23T09:02:43;2.88;;;0.75;;
51852;SDS011;37894;53.172;6.598;2022-07-23T09:05:10;1.63;;;0.60;;
51852;SDS011;37894;53.172;6.598;2022-07-23T09:07:38;2.53;;;0.73;;
51852;SDS011;37894;53.172;6.598;2022-07-23T09:10:28;2.88;;;1.08;;
51852;SDS011;37894;53.172;6.598;2022-07-23T09:12:54;7.32;;;1.13;;
51852;SDS011;37894;53.172;6.598;2022-07-23T09:15:20;1.65;;;0.80;;
51852;SDS011;37894;53.172;6.598;2022-07-23T09:17:46;2.63;;;0.80;;
51852;SDS011;37894;53.172;6.598;2022-07-23T09:20:13;2.88;;;0.70;;
51852;SDS011;37894;53.172;6.598;2022-07-23T09:22:44;3.85;;;0.95;;
51852;SDS011;37894;53.172;6.598;2022-07-23T09:27:57;2.70;;;0.88;;
51852;SDS011;37894;53.172;6.598;2022-07-23T09:30:28;4.03;;;0.93;;
51852;SDS011;37894;53.172;6.598;2022-07-23T09:35:49;2.47;;;0.80;;
51852;SDS011;37894;53.172;6.598;2022-07-23T09:38:17;2.70;;;0.88;;
51852;SDS011;37894;53.172;6.598;2022-07-23T09:40:44;2.05;;;0.80;;
51852;SDS011;37894;53.172;6.598;2022-07-23T09:43:10;5.32;;;1.33;;
51852;SDS011;37894;53.172;6.598;2022-07-23T09:45:37;6.50;;;0.93;;
51852;SDS011;37894;53.172;6.598;2022-07-23T09:48:14;4.80;;;0.80;;
51852;SDS011;37894;53.172;6.598;2022-07-23T09:50:41;2.70;;;0.80;;
51852;SDS011;37894;53.172;6.598;2022-07-23T09:53:08;1.30;;;0.60;;
51852;SDS011;37894;53.172;6.598;2022-07-23T09:55:35;3.30;;;0.80;;
51852;SDS011;37894;53.172;6.598;2022-07-23T09:58:07;3.05;;;0.80;;
51852;SDS011;37894;53.172;6.598;2022-07-23T10:00:37;2.60;;;0.88;;
51852;SDS011;37894;53.172;6.598;2022-07-23T10:03:04;7.32;;;1.23;;
51852;SDS011;37894;53.172;6.598;2022-07-23T10:05:31;5.60;;;1.23;;
51852;SDS011;37894;53.172;6.598;2022-07-23T10:08:01;2.72;;;0.90;;
51852;SDS011;37894;53.172;6.598;2022-07-23T10:10:27;1.55;;;0.80;;
51852;SDS011;37894;53.172;6.598;2022-07-23T10:12:55;3.55;;;0.82;;
51852;SDS011;37894;53.172;6.598;2022-07-23T10:15:40;2.85;;;1.10;;
51852;SDS011;37894;53.172;6.598;2022-07-23T10:18:07;3.22;;;1.00;;
51852;SDS011;37894;53.172;6.598;2022-07-23T10:20:35;4.60;;;0.90;;
51852;SDS011;37894;53.172;6.598;2022-07-23T10:25:58;2.90;;;0.80;;
51852;SDS011;37894;53.172;6.598;2022-07-23T10:31:20;2.33;;;0.90;;
51852;SDS011;37894;53.172;6.598;2022-07-23T10:34:00;1.95;;;0.90;;
51852;SDS011;37894;53.172;6.598;2022-07-23T10:36:42;2.97;;;1.02;;
51852;SDS011;37894;53.172;6.598;2022-07-23T10:41:49;1.73;;;0.90;;
51852;SDS011;37894;53.172;6.598;2022-07-23T10:44:20;5.05;;;0.85;;
51852;SDS011;37894;53.172;6.598;2022-07-23T10:47:03;2.50;;;1.10;;
51852;SDS011;37894;53.172;6.598;2022-07-23T10:49:35;2.08;;;0.85;;
51852;SDS011;37894;53.172;6.598;2022-07-23T10:54:42;4.88;;;1.10;;
51852;SDS011;37894;53.172;6.598;2022-07-23T10:57:12;3.58;;;0.95;;
51852;SDS011;37894;53.172;6.598;2022-07-23T11:02:37;1.35;;;0.77;;
51852;SDS011;37894;53.172;6.598;2022-07-23T11:05:05;2.08;;;0.90;;
51852;SDS011;37894;53.172;6.598;2022-07-23T11:07:35;1.67;;;0.80;;
51852;SDS011;37894;53.172;6.598;2022-07-23T11:10:02;2.55;;;0.95;;
51852;SDS011;37894;53.172;6.598;2022-07-23T11:17:28;2.75;;;1.10;;
51852;SDS011;37894;53.172;6.598;2022-07-23T11:22:37;3.83;;;1.08;;
51852;SDS011;37894;53.172;6.598;2022-07-23T11:25:12;3.22;;;0.98;;
51852;SDS011;37894;53.172;6.598;2022-07-23T11:27:48;3.17;;;1.00;;
51852;SDS011;37894;53.172;6.598;2022-07-23T11:35:34;4.70;;;1.13;;
51852;SDS011;37894;53.172;6.598;2022-07-23T11:38:05;1.88;;;1.08;;
51852;SDS011;37894;53.172;6.598;2022-07-23T11:40:51;2.85;;;1.00;;
51852;SDS011;37894;53.172;6.598;2022-07-23T11:43:22;3.40;;;1.27;;
51852;SDS011;37894;53.172;6.598;2022-07-23T11:45:49;2.20;;;0.98;;
51852;SDS011;37894;53.172;6.598;2022-07-23T11:48:19;2.85;;;1.08;;
51852;SDS011;37894;53.172;6.598;2022-07-23T11:50:47;5.07;;;1.58;;
51852;SDS011;37894;53.172;6.598;2022-07-23T11:53:15;4.97;;;1.20;;
51852;SDS011;37894;53.172;6.598;2022-07-23T11:56:03;6.82;;;1.23;;
51852;SDS011;37894;53.172;6.598;2022-07-23T11:58:30;4.15;;;1.00;;
51852;SDS011;37894;53.172;6.598;2022-07-23T12:00:56;2.70;;;1.35;;
51852;SDS011;37894;53.172;6.598;2022-07-23T12:03:22;3.28;;;1.17;;
51852;SDS011;37894;53.172;6.598;2022-07-23T12:05:47;3.92;;;1.42;;
51852;SDS011;37894;53.172;6.598;2022-07-23T12:08:13;2.00;;;1.10;;
51852;SDS011;37894;53.172;6.598;2022-07-23T12:10:40;2.25;;;0.93;;
51852;SDS011;37894;53.172;6.598;2022-07-23T12:13:08;3.50;;;1.25;;
51852;SDS011;37894;53.172;6.598;2022-07-23T12:15:50;3.53;;;1.02;;
51852;SDS011;37894;53.172;6.598;2022-07-23T12:18:19;3.95;;;1.00;;
51852;SDS011;37894;53.172;6.598;2022-07-23T12:20:51;3.75;;;1.10;;
51852;SDS011;37894;53.172;6.598;2022-07-23T12:23:20;2.65;;;0.93;;
51852;SDS011;37894;53.172;6.598;2022-07-23T12:25:47;4.10;;;1.20;;
51852;SDS011;37894;53.172;6.598;2022-07-23T12:28:15;2.47;;;1.05;;
51852;SDS011;37894;53.172;6.598;2022-07-23T12:30:46;2.22;;;0.93;;
51852;SDS011;37894;53.172;6.598;2022-07-23T12:33:14;2.58;;;1.00;;
51852;SDS011;37894;53.172;6.598;2022-07-23T12:35:46;3.97;;;1.00;;
51852;SDS011;37894;53.172;6.598;2022-07-23T12:38:14;3.38;;;1.00;;
51852;SDS011;37894;53.172;6.598;2022-07-23T12:40:49;3.80;;;1.00;;
51852;SDS011;37894;53.172;6.598;2022-07-23T12:46:03;1.92;;;1.00;;
51852;SDS011;37894;53.172;6.598;2022-07-23T12:48:34;3.47;;;1.20;;
51852;SDS011;37894;53.172;6.598;2022-07-23T12:51:34;3.60;;;0.93;;
51852;SDS011;37894;53.172;6.598;2022-07-23T12:54:13;1.65;;;0.80;;
51852;SDS011;37894;53.172;6.598;2022-07-23T12:56:40;3.92;;;0.85;;
51852;SDS011;37894;53.172;6.598;2022-07-23T12:59:11;2.42;;;0.95;;
51852;SDS011;37894;53.172;6.598;2022-07-23T13:01:42;1.40;;;0.77;;
51852;SDS011;37894;53.172;6.598;2022-07-23T13:04:20;2.08;;;0.90;;
51852;SDS011;37894;53.172;6.598;2022-07-23T13:07:06;2.53;;;1.00;;
51852;SDS011;37894;53.172;6.598;2022-07-23T13:09:32;2.30;;;0.80;;
51852;SDS011;37894;53.172;6.598;2022-07-23T13:11:59;3.75;;;1.05;;
51852;SDS011;37894;53.172;6.598;2022-07-23T13:14:25;2.42;;;0.90;;
51852;SDS011;37894;53.172;6.598;2022-07-23T13:16:52;2.20;;;1.00;;
51852;SDS011;37894;53.172;6.598;2022-07-23T13:19:18;2.83;;;0.98;;
51852;SDS011;37894;53.172;6.598;2022-07-23T13:21:44;1.45;;;0.73;;
51852;SDS011;37894;53.172;6.598;2022-07-23T13:24:11;1.45;;;0.70;;
51852;SDS011;37894;53.172;6.598;2022-07-23T13:26:37;2.95;;;1.05;;
51852;SDS011;37894;53.172;6.598;2022-07-23T13:29:04;2.40;;;1.10;;
51852;SDS011;37894;53.172;6.598;2022-07-23T13:31:30;3.15;;;0.90;;
51852;SDS011;37894;53.172;6.598;2022-07-23T13:33:56;3.53;;;0.90;;
51852;SDS011;37894;53.172;6.598;2022-07-23T13:36:22;2.42;;;0.90;;
51852;SDS011;37894;53.172;6.598;2022-07-23T13:38:47;3.50;;;1.00;;
51852;SDS011;37894;53.172;6.598;2022-07-23T13:41:13;4.13;;;1.30;;
51852;SDS011;37894;53.172;6.598;2022-07-23T13:43:41;2.20;;;1.05;;
51852;SDS011;37894;53.172;6.598;2022-07-23T13:46:07;2.10;;;0.90;;
51852;SDS011;37894;53.172;6.598;2022-07-23T13:48:32;3.13;;;0.95;;
51852;SDS011;37894;53.172;6.598;2022-07-23T13:50:58;5.72;;;1.08;;
51852;SDS011;37894;53.172;6.598;2022-07-23T13:53:24;3.42;;;0.90;;
51852;SDS011;37894;53.172;6.598;2022-07-23T13:55:50;1.85;;;0.90;;
51852;SDS011;37894;53.172;6.598;2022-07-23T13:58:17;2.22;;;0.93;;
51852;SDS011;37894;53.172;6.598;2022-07-23T14:00:44;2.85;;;0.90;;
51852;SDS011;37894;53.172;6.598;2022-07-23T14:03:12;3.30;;;1.00;;
51852;SDS011;37894;53.172;6.598;2022-07-23T14:05:38;2.45;;;0.95;;
51852;SDS011;37894;53.172;6.598;2022-07-23T14:08:04;2.05;;;0.80;;
51852;SDS011;37894;53.172;6.598;2022-07-23T14:10:30;2.05;;;0.82;;
51852;SDS011;37894;53.172;6.598;2022-07-23T14:12:56;2.28;;;0.90;;
51852;SDS011;37894;53.172;6.598;2022-07-23T14:15:24;2.42;;;1.00;;
51852;SDS011;37894;53.172;6.598;2022-07-23T14:17:51;3.35;;;0.90;;
51852;SDS011;37894;53.172;6.598;2022-07-23T14:20:18;2.05;;;1.00;;
51852;SDS011;37894;53.172;6.598;2022-07-23T14:22:43;3.15;;;1.00;;
51852;SDS011;37894;53.172;6.598;2022-07-23T14:25:09;1.90;;;0.98;;
51852;SDS011;37894;53.172;6.598;2022-07-23T14:27:36;1.92;;;0.90;;
51852;SDS011;37894;53.172;6.598;2022-07-23T14:30:02;3.53;;;1.00;;
51852;SDS011;37894;53.172;6.598;2022-07-23T14:32:29;2.47;;;1.05;;
51852;SDS011;37894;53.172;6.598;2022-07-23T14:34:55;1.70;;;0.90;;
51852;SDS011;37894;53.172;6.598;2022-07-23T14:37:21;4.38;;;1.27;;
51852;SDS011;37894;53.172;6.598;2022-07-23T14:39:47;5.05;;;1.33;;
51852;SDS011;37894;53.172;6.598;2022-07-23T14:42:12;3.25;;;1.10;;
51852;SDS011;37894;53.172;6.598;2022-07-23T14:44:38;2.30;;;1.25;;
51852;SDS011;37894;53.172;6.598;2022-07-23T14:47:04;3.38;;;1.50;;
51852;SDS011;37894;53.172;6.598;2022-07-23T14:49:31;2.97;;;1.30;;
51852;SDS011;37894;53.172;6.598;2022-07-23T14:51:57;2.75;;;1.08;;
51852;SDS011;37894;53.172;6.598;2022-07-23T14:54:23;3.85;;;1.13;;
51852;SDS011;37894;53.172;6.598;2022-07-23T14:56:51;2.25;;;1.02;;
51852;SDS011;37894;53.172;6.598;2022-07-23T14:59:18;4.07;;;1.25;;
51852;SDS011;37894;53.172;6.598;2022-07-23T15:01:44;3.20;;;1.20;;
51852;SDS011;37894;53.172;6.598;2022-07-23T15:04:10;3.40;;;1.00;;
51852;SDS011;37894;53.172;6.598;2022-07-23T15:06:35;3.47;;;1.20;;
51852;SDS011;37894;53.172;6.598;2022-07-23T15:09:02;2.75;;;1.10;;
51852;SDS011;37894;53.172;6.598;2022-07-23T15:11:27;2.95;;;1.00;;
51852;SDS011;37894;53.172;6.598;2022-07-23T15:13:56;1.65;;;1.00;;
51852;SDS011;37894;53.172;6.598;2022-07-23T15:16:21;2.38;;;1.10;;
51852;SDS011;37894;53.172;6.598;2022-07-23T15:18:47;3.58;;;1.02;;
51852;SDS011;37894;53.172;6.598;2022-07-23T15:21:13;3.40;;;1.10;;
51852;SDS011;37894;53.172;6.598;2022-07-23T15:23:38;2.85;;;1.08;;
51852;SDS011;37894;53.172;6.598;2022-07-23T15:26:04;3.05;;;1.10;;